sensor_id;sensor_type;location;lat;lon;timestamp;pressure;altitude;pressure_sealevel;temperature;humidity
55486;BME280;71262;-25.924;28.194;2023-08-01T00:00:46;85903.78;;;19.27;26.33
55486;BME280;71262;-25.924;28.194;2023-08-01T00:03:11;85909.62;;;19.09;26.28
55486;BME280;71262;-25.924;28.194;2023-08-01T00:05:37;85915.51;;;19.37;26.23
55486;BME280;71262;-25.924;28.194;2023-08-01T00:08:01;85914.42;;;19.12;26.23
55486;BME280;71262;-25.924;28.194;2023-08-01T00:10:27;85909.12;;;19.36;26.18
55486;BME280;71262;-25.924;28.194;2023-08-01T00:12:52;85904.88;;;19.36;26.18
55486;BME280;71262;-25.924;28.194;2023-08-01T00:15:17;85909.66;;;19.30;26.20
55486;BME280;71262;-25.924;28.194;2023-08-01T00:17:42;85911.78;;;19.31;26.18
55486;BME280;71262;-25.924;28.194;2023-08-01T00:20:08;85913.34;;;19.30;26.19
55486;BME280;71262;-25.924;28.194;2023-08-01T00:22:32;85915.07;;;19.37;26.11
55486;BME280;71262;-25.924;28.194;2023-08-01T00:24:58;85911.90;;;19.36;26.14
55486;BME280;71262;-25.924;28.194;2023-08-01T00:27:23;85909.49;;;19.33;26.16
55486;BME280;71262;-25.924;28.194;2023-08-01T00:29:48;85910.48;;;19.30;26.18
55486;BME280;71262;-25.924;28.194;2023-08-01T00:32:13;85914.55;;;19.33;26.17
55486;BME280;71262;-25.924;28.194;2023-08-01T00:34:38;85912.40;;;19.09;26.11
55486;BME280;71262;-25.924;28.194;2023-08-01T00:37:04;85907.58;;;19.30;26.13
55486;BME280;71262;-25.924;28.194;2023-08-01T00:39:28;85909.43;;;19.35;26.06
55486;BME280;71262;-25.924;28.194;2023-08-01T00:41:54;85914.36;;;19.06;26.12
55486;BME280;71262;-25.924;28.194;2023-08-01T00:44:19;85921.30;;;19.26;26.13
55486;BME280;71262;-25.924;28.194;2023-08-01T00:46:44;85922.63;;;19.31;26.05
55486;BME280;71262;-25.924;28.194;2023-08-01T00:49:09;85921.90;;;19.32;26.07
55486;BME280;71262;-25.924;28.194;2023-08-01T00:51:34;85921.52;;;19.26;26.11
55486;BME280;71262;-25.924;28.194;2023-08-01T00:54:00;85919.29;;;18.80;26.10
55486;BME280;71262;-25.924;28.194;2023-08-01T00:56:25;85920.30;;;19.06;26.05
55486;BME280;71262;-25.924;28.194;2023-08-01T00:58:50;85923.08;;;19.06;26.02
55486;BME280;71262;-25.924;28.194;2023-08-01T01:01:15;85921.77;;;19.26;26.04
55486;BME280;71262;-25.924;28.194;2023-08-01T01:03:40;85917.38;;;19.22;26.08
55486;BME280;71262;-25.924;28.194;2023-08-01T01:06:12;85912.83;;;18.96;26.11
55486;BME280;71262;-25.924;28.194;2023-08-01T01:08:30;85911.95;;;19.14;26.16
55486;BME280;71262;-25.924;28.194;2023-08-01T01:10:55;85913.89;;;18.93;26.19
55486;BME280;71262;-25.924;28.194;2023-08-01T01:13:21;85917.33;;;19.00;26.14
55486;BME280;71262;-25.924;28.194;2023-08-01T01:15:46;85914.82;;;19.06;26.32
55486;BME280;71262;-25.924;28.194;2023-08-01T01:18:11;85913.96;;;19.10;26.33
55486;BME280;71262;-25.924;28.194;2023-08-01T01:20:36;85911.96;;;19.10;26.36
55486;BME280;71262;-25.924;28.194;2023-08-01T01:23:03;85910.63;;;18.88;26.39
55486;BME280;71262;-25.924;28.194;2023-08-01T01:25:27;85910.36;;;19.08;26.44
55486;BME280;71262;-25.924;28.194;2023-08-01T01:27:52;85910.82;;;19.07;26.46
55486;BME280;71262;-25.924;28.194;2023-08-01T01:30:17;85910.15;;;19.06;26.52
55486;BME280;71262;-25.924;28.194;2023-08-01T01:32:42;85904.64;;;19.08;26.57
55486;BME280;71262;-25.924;28.194;2023-08-01T01:35:07;85901.24;;;19.04;26.65
55486;BME280;71262;-25.924;28.194;2023-08-01T01:37:32;85900.50;;;19.06;26.67
55486;BME280;71262;-25.924;28.194;2023-08-01T01:39:57;85898.94;;;18.99;26.73
55486;BME280;71262;-25.924;28.194;2023-08-01T01:42:22;85896.64;;;19.10;26.61
55486;BME280;71262;-25.924;28.194;2023-08-01T01:44:48;85898.63;;;19.10;26.66
55486;BME280;71262;-25.924;28.194;2023-08-01T01:47:13;85896.56;;;19.06;26.69
55486;BME280;71262;-25.924;28.194;2023-08-01T01:49:38;85895.66;;;19.31;26.76
55486;BME280;71262;-25.924;28.194;2023-08-01T01:52:03;85897.89;;;18.97;26.80
55486;BME280;71262;-25.924;28.194;2023-08-01T01:54:28;85903.62;;;19.00;26.81
55486;BME280;71262;-25.924;28.194;2023-08-01T01:56:53;85904.13;;;19.01;26.78
55486;BME280;71262;-25.924;28.194;2023-08-01T01:59:18;85902.37;;;19.09;26.70
55486;BME280;71262;-25.924;28.194;2023-08-01T02:01:44;85906.36;;;19.11;26.74
55486;BME280;71262;-25.924;28.194;2023-08-01T02:04:09;85903.83;;;19.07;26.74
55486;BME280;71262;-25.924;28.194;2023-08-01T02:06:34;85905.76;;;19.28;26.80
55486;BME280;71262;-25.924;28.194;2023-08-01T02:09:00;85905.06;;;19.27;26.78
55486;BME280;71262;-25.924;28.194;2023-08-01T02:11:24;85908.19;;;19.02;26.81
55486;BME280;71262;-25.924;28.194;2023-08-01T02:13:49;85906.07;;;19.05;26.77
55486;BME280;71262;-25.924;28.194;2023-08-01T02:16:14;85904.02;;;19.03;26.80
55486;BME280;71262;-25.924;28.194;2023-08-01T02:18:40;85908.76;;;19.04;26.81
55486;BME280;71262;-25.924;28.194;2023-08-01T02:21:05;85913.24;;;19.06;26.74
55486;BME280;71262;-25.924;28.194;2023-08-01T02:23:30;85914.63;;;19.12;26.71
55486;BME280;71262;-25.924;28.194;2023-08-01T02:25:55;85915.89;;;18.74;26.59
55486;BME280;71262;-25.924;28.194;2023-08-01T02:28:20;85922.71;;;19.06;26.70
55486;BME280;71262;-25.924;28.194;2023-08-01T02:30:45;85922.63;;;19.16;26.86
55486;BME280;71262;-25.924;28.194;2023-08-01T02:33:10;85923.08;;;18.86;26.81
55486;BME280;71262;-25.924;28.194;2023-08-01T02:35:36;85918.87;;;19.16;26.82
55486;BME280;71262;-25.924;28.194;2023-08-01T02:38:01;85916.47;;;18.89;26.87
55486;BME280;71262;-25.924;28.194;2023-08-01T02:40:26;85915.05;;;18.90;26.86
55486;BME280;71262;-25.924;28.194;2023-08-01T02:42:51;85909.80;;;18.98;26.70
55486;BME280;71262;-25.924;28.194;2023-08-01T02:45:16;85908.20;;;18.87;26.87
55486;BME280;71262;-25.924;28.194;2023-08-01T02:47:41;85910.00;;;18.89;26.81
55486;BME280;71262;-25.924;28.194;2023-08-01T02:50:07;85904.55;;;18.88;26.70
55486;BME280;71262;-25.924;28.194;2023-08-01T02:52:32;85905.29;;;18.83;26.80
55486;BME280;71262;-25.924;28.194;2023-08-01T02:54:57;85902.85;;;18.84;26.78
55486;BME280;71262;-25.924;28.194;2023-08-01T02:57:22;85906.09;;;18.86;26.72
55486;BME280;71262;-25.924;28.194;2023-08-01T02:59:47;85907.88;;;18.92;26.68
55486;BME280;71262;-25.924;28.194;2023-08-01T03:02:12;85910.84;;;18.94;26.61
55486;BME280;71262;-25.924;28.194;2023-08-01T03:04:37;85913.50;;;18.92;26.61
55486;BME280;71262;-25.924;28.194;2023-08-01T03:07:03;85914.55;;;18.88;26.60
55486;BME280;71262;-25.924;28.194;2023-08-01T03:09:28;85915.65;;;18.83;26.65
55486;BME280;71262;-25.924;28.194;2023-08-01T03:11:53;85917.51;;;18.81;26.63
55486;BME280;71262;-25.924;28.194;2023-08-01T03:14:18;85916.20;;;18.86;26.56
55486;BME280;71262;-25.924;28.194;2023-08-01T03:16:43;85915.66;;;18.87;26.55
55486;BME280;71262;-25.924;28.194;2023-08-01T03:19:08;85911.92;;;18.87;26.53
55486;BME280;71262;-25.924;28.194;2023-08-01T03:21:34;85912.36;;;19.11;26.49
55486;BME280;71262;-25.924;28.194;2023-08-01T03:23:59;85912.27;;;18.77;26.56
55486;BME280;71262;-25.924;28.194;2023-08-01T03:26:24;85908.99;;;18.82;26.54
55486;BME280;71262;-25.924;28.194;2023-08-01T03:28:49;85909.85;;;18.83;26.46
55486;BME280;71262;-25.924;28.194;2023-08-01T03:31:14;85908.46;;;19.08;26.46
55486;BME280;71262;-25.924;28.194;2023-08-01T03:33:39;85912.28;;;19.11;26.44
55486;BME280;71262;-25.924;28.194;2023-08-01T03:36:05;85917.74;;;18.80;26.42
55486;BME280;71262;-25.924;28.194;2023-08-01T03:38:29;85924.55;;;18.89;26.29
55486;BME280;71262;-25.924;28.194;2023-08-01T03:40:55;85926.87;;;18.90;26.34
55486;BME280;71262;-25.924;28.194;2023-08-01T03:43:20;85930.84;;;18.84;26.26
55486;BME280;71262;-25.924;28.194;2023-08-01T03:45:45;85938.10;;;18.60;26.31
55486;BME280;71262;-25.924;28.194;2023-08-01T03:48:10;85940.57;;;18.78;26.31
55486;BME280;71262;-25.924;28.194;2023-08-01T03:50:35;85943.39;;;19.03;26.31
55486;BME280;71262;-25.924;28.194;2023-08-01T03:53:00;85941.89;;;19.04;26.21
55486;BME280;71262;-25.924;28.194;2023-08-01T03:55:26;85942.56;;;18.71;26.28
55486;BME280;71262;-25.924;28.194;2023-08-01T03:57:51;85943.45;;;18.56;26.18
55486;BME280;71262;-25.924;28.194;2023-08-01T04:00:16;85946.85;;;18.77;26.35
55486;BME280;71262;-25.924;28.194;2023-08-01T04:02:41;85945.13;;;18.77;26.37
55486;BME280;71262;-25.924;28.194;2023-08-01T04:05:07;85948.17;;;19.00;26.34
55486;BME280;71262;-25.924;28.194;2023-08-01T04:07:31;85949.84;;;18.71;26.47
55486;BME280;71262;-25.924;28.194;2023-08-01T04:09:56;85950.49;;;18.93;26.52
55486;BME280;71262;-25.924;28.194;2023-08-01T04:12:22;85950.85;;;18.66;26.54
55486;BME280;71262;-25.924;28.194;2023-08-01T04:14:47;85956.43;;;19.03;26.66
55486;BME280;71262;-25.924;28.194;2023-08-01T04:17:12;85960.59;;;18.52;26.68
55486;BME280;71262;-25.924;28.194;2023-08-01T04:19:38;85964.27;;;18.77;26.74
55486;BME280;71262;-25.924;28.194;2023-08-01T04:22:03;85968.72;;;18.43;26.86
55486;BME280;71262;-25.924;28.194;2023-08-01T04:24:28;85970.33;;;18.96;26.75
55486;BME280;71262;-25.924;28.194;2023-08-01T04:26:53;85977.53;;;18.75;26.81
55486;BME280;71262;-25.924;28.194;2023-08-01T04:29:18;85975.94;;;18.72;26.78
55486;BME280;71262;-25.924;28.194;2023-08-01T04:31:44;85973.90;;;18.48;26.73
55486;BME280;71262;-25.924;28.194;2023-08-01T04:34:10;85974.49;;;18.57;26.68
55486;BME280;71262;-25.924;28.194;2023-08-01T04:36:35;85977.48;;;18.78;26.71
55486;BME280;71262;-25.924;28.194;2023-08-01T04:39:00;85979.78;;;19.00;26.72
55486;BME280;71262;-25.924;28.194;2023-08-01T04:41:25;85983.79;;;18.72;26.75
55486;BME280;71262;-25.924;28.194;2023-08-01T04:43:51;85984.16;;;18.86;26.77
55486;BME280;71262;-25.924;28.194;2023-08-01T04:46:16;85988.33;;;18.39;26.78
55486;BME280;71262;-25.924;28.194;2023-08-01T04:48:42;85991.56;;;18.40;26.75
55486;BME280;71262;-25.924;28.194;2023-08-01T04:51:07;85988.40;;;18.43;26.73
55486;BME280;71262;-25.924;28.194;2023-08-01T04:53:32;85988.61;;;18.58;26.54
55486;BME280;71262;-25.924;28.194;2023-08-01T04:55:58;85989.57;;;18.79;26.65
55486;BME280;71262;-25.924;28.194;2023-08-01T04:58:22;85988.45;;;18.74;26.75
55486;BME280;71262;-25.924;28.194;2023-08-01T05:00:47;85993.60;;;18.42;26.90
55486;BME280;71262;-25.924;28.194;2023-08-01T05:03:12;85996.20;;;18.51;27.22
55486;BME280;71262;-25.924;28.194;2023-08-01T05:05:38;85999.65;;;18.72;27.26
55486;BME280;71262;-25.924;28.194;2023-08-01T05:08:03;85996.05;;;18.51;27.56
55486;BME280;71262;-25.924;28.194;2023-08-01T05:10:28;86000.66;;;18.36;27.64
55486;BME280;71262;-25.924;28.194;2023-08-01T05:12:53;86004.86;;;18.42;27.70
55486;BME280;71262;-25.924;28.194;2023-08-01T05:15:19;86008.71;;;18.57;27.67
55486;BME280;71262;-25.924;28.194;2023-08-01T05:17:43;86011.74;;;18.97;27.69
55486;BME280;71262;-25.924;28.194;2023-08-01T05:20:09;86012.95;;;19.06;27.72
55486;BME280;71262;-25.924;28.194;2023-08-01T05:22:34;86013.10;;;18.74;27.72
55486;BME280;71262;-25.924;28.194;2023-08-01T05:24:59;86014.03;;;18.71;27.81
55486;BME280;71262;-25.924;28.194;2023-08-01T05:27:25;86021.24;;;18.87;27.68
55486;BME280;71262;-25.924;28.194;2023-08-01T05:29:50;86029.24;;;18.89;27.56
55486;BME280;71262;-25.924;28.194;2023-08-01T05:32:16;86031.10;;;19.08;27.32
55486;BME280;71262;-25.924;28.194;2023-08-01T05:34:41;86036.01;;;18.90;27.17
55486;BME280;71262;-25.924;28.194;2023-08-01T05:37:06;86040.66;;;19.10;26.87
55486;BME280;71262;-25.924;28.194;2023-08-01T05:39:31;86035.69;;;19.48;26.66
55486;BME280;71262;-25.924;28.194;2023-08-01T05:41:56;86041.08;;;19.13;26.51
55486;BME280;71262;-25.924;28.194;2023-08-01T05:44:22;86041.34;;;19.69;26.21
55486;BME280;71262;-25.924;28.194;2023-08-01T05:46:47;86039.16;;;19.77;25.87
55486;BME280;71262;-25.924;28.194;2023-08-01T05:49:12;86044.06;;;19.77;25.63
55486;BME280;71262;-25.924;28.194;2023-08-01T05:51:37;86043.20;;;19.88;25.49
55486;BME280;71262;-25.924;28.194;2023-08-01T05:54:02;86048.06;;;20.01;25.36
55486;BME280;71262;-25.924;28.194;2023-08-01T05:56:27;86049.81;;;20.12;25.30
55486;BME280;71262;-25.924;28.194;2023-08-01T05:58:52;86051.95;;;20.30;25.18
55486;BME280;71262;-25.924;28.194;2023-08-01T06:01:17;86052.62;;;19.92;25.27
55486;BME280;71262;-25.924;28.194;2023-08-01T06:03:42;86055.17;;;20.42;25.27
55486;BME280;71262;-25.924;28.194;2023-08-01T06:06:07;86059.99;;;20.39;24.95
55486;BME280;71262;-25.924;28.194;2023-08-01T06:08:32;86063.67;;;20.56;24.82
55486;BME280;71262;-25.924;28.194;2023-08-01T06:10:57;86062.28;;;20.68;24.66
55486;BME280;71262;-25.924;28.194;2023-08-01T06:13:22;86061.80;;;20.76;25.21
55486;BME280;71262;-25.924;28.194;2023-08-01T06:15:48;86057.25;;;20.82;24.72
55486;BME280;71262;-25.924;28.194;2023-08-01T06:18:13;86054.36;;;21.06;24.45
55486;BME280;71262;-25.924;28.194;2023-08-01T06:20:38;86053.06;;;20.52;24.54
55486;BME280;71262;-25.924;28.194;2023-08-01T06:23:03;86052.17;;;20.49;24.44
55486;BME280;71262;-25.924;28.194;2023-08-01T06:25:28;86053.68;;;20.61;24.61
55486;BME280;71262;-25.924;28.194;2023-08-01T06:27:53;86057.71;;;20.67;24.81
55486;BME280;71262;-25.924;28.194;2023-08-01T06:30:18;86062.05;;;20.77;25.08
55486;BME280;71262;-25.924;28.194;2023-08-01T06:32:43;86061.80;;;21.14;25.21
55486;BME280;71262;-25.924;28.194;2023-08-01T06:35:09;86065.06;;;20.93;25.45
55486;BME280;71262;-25.924;28.194;2023-08-01T06:37:33;86071.75;;;21.36;25.67
55486;BME280;71262;-25.924;28.194;2023-08-01T06:39:58;86075.07;;;21.30;26.02
55486;BME280;71262;-25.924;28.194;2023-08-01T06:42:23;86080.55;;;21.09;26.19
55486;BME280;71262;-25.924;28.194;2023-08-01T06:44:48;86088.53;;;21.25;26.32
55486;BME280;71262;-25.924;28.194;2023-08-01T06:47:13;86096.23;;;21.21;26.45
55486;BME280;71262;-25.924;28.194;2023-08-01T06:49:38;86101.75;;;21.28;26.49
55486;BME280;71262;-25.924;28.194;2023-08-01T06:52:04;86103.95;;;21.44;26.55
55486;BME280;71262;-25.924;28.194;2023-08-01T06:54:28;86110.28;;;21.39;26.55
55486;BME280;71262;-25.924;28.194;2023-08-01T06:56:53;86113.24;;;21.43;26.65
55486;BME280;71262;-25.924;28.194;2023-08-01T06:59:18;86119.68;;;21.26;26.57
55486;BME280;71262;-25.924;28.194;2023-08-01T07:01:44;86123.76;;;21.54;27.50
55486;BME280;71262;-25.924;28.194;2023-08-01T07:04:08;86127.53;;;21.59;27.96
55486;BME280;71262;-25.924;28.194;2023-08-01T07:06:34;86130.88;;;21.60;27.82
55486;BME280;71262;-25.924;28.194;2023-08-01T07:08:58;86134.14;;;21.44;27.67
55486;BME280;71262;-25.924;28.194;2023-08-01T07:11:24;86132.05;;;21.66;27.84
55486;BME280;71262;-25.924;28.194;2023-08-01T07:13:49;86138.07;;;21.69;28.17
55486;BME280;71262;-25.924;28.194;2023-08-01T07:16:14;86142.67;;;21.50;28.50
55486;BME280;71262;-25.924;28.194;2023-08-01T07:18:39;86147.50;;;21.73;28.44
55486;BME280;71262;-25.924;28.194;2023-08-01T07:21:05;86152.63;;;21.55;29.06
55486;BME280;71262;-25.924;28.194;2023-08-01T07:23:34;86154.20;;;21.75;28.41
55486;BME280;71262;-25.924;28.194;2023-08-01T07:25:55;86160.38;;;21.62;28.70
55486;BME280;71262;-25.924;28.194;2023-08-01T07:28:20;86159.40;;;21.63;28.58
55486;BME280;71262;-25.924;28.194;2023-08-01T07:30:45;86160.53;;;21.66;28.21
55486;BME280;71262;-25.924;28.194;2023-08-01T07:33:10;86163.42;;;21.89;28.15
55486;BME280;71262;-25.924;28.194;2023-08-01T07:35:35;86167.92;;;21.88;28.15
55486;BME280;71262;-25.924;28.194;2023-08-01T07:38:00;86164.53;;;21.93;27.87
55486;BME280;71262;-25.924;28.194;2023-08-01T07:40:25;86164.47;;;21.76;27.83
55486;BME280;71262;-25.924;28.194;2023-08-01T07:42:51;86162.53;;;21.83;27.75
55486;BME280;71262;-25.924;28.194;2023-08-01T07:45:15;86167.54;;;21.79;27.58
55486;BME280;71262;-25.924;28.194;2023-08-01T07:47:40;86168.93;;;22.03;27.50
55486;BME280;71262;-25.924;28.194;2023-08-01T07:50:06;86171.59;;;22.05;27.28
55486;BME280;71262;-25.924;28.194;2023-08-01T07:52:30;86169.62;;;22.21;27.16
55486;BME280;71262;-25.924;28.194;2023-08-01T07:54:55;86167.72;;;21.87;27.22
55486;BME280;71262;-25.924;28.194;2023-08-01T07:57:21;86166.05;;;21.67;27.05
55486;BME280;71262;-25.924;28.194;2023-08-01T07:59:46;86167.78;;;22.22;26.88
55486;BME280;71262;-25.924;28.194;2023-08-01T08:02:11;86170.75;;;22.37;26.66
55486;BME280;71262;-25.924;28.194;2023-08-01T08:04:37;86170.12;;;22.01;26.88
55486;BME280;71262;-25.924;28.194;2023-08-01T08:07:01;86174.49;;;22.03;26.60
55486;BME280;71262;-25.924;28.194;2023-08-01T08:09:26;86176.10;;;22.23;26.65
55486;BME280;71262;-25.924;28.194;2023-08-01T08:11:51;86172.96;;;22.20;26.47
55486;BME280;71262;-25.924;28.194;2023-08-01T08:14:16;86172.53;;;21.80;26.39
55486;BME280;71262;-25.924;28.194;2023-08-01T08:16:41;86178.44;;;21.97;26.37
55486;BME280;71262;-25.924;28.194;2023-08-01T08:19:06;86180.56;;;22.04;26.15
55486;BME280;71262;-25.924;28.194;2023-08-01T08:21:31;86178.62;;;22.28;26.31
55486;BME280;71262;-25.924;28.194;2023-08-01T08:23:56;86182.50;;;22.24;26.02
55486;BME280;71262;-25.924;28.194;2023-08-01T08:26:21;86187.47;;;21.85;26.25
55486;BME280;71262;-25.924;28.194;2023-08-01T08:28:46;86185.66;;;22.13;25.77
55486;BME280;71262;-25.924;28.194;2023-08-01T08:31:11;86186.10;;;22.20;25.53
55486;BME280;71262;-25.924;28.194;2023-08-01T08:33:36;86186.21;;;22.12;26.04
55486;BME280;71262;-25.924;28.194;2023-08-01T08:36:01;86184.85;;;22.42;25.38
55486;BME280;71262;-25.924;28.194;2023-08-01T08:38:26;86187.31;;;22.15;25.39
55486;BME280;71262;-25.924;28.194;2023-08-01T08:41:00;86183.03;;;22.16;25.35
55486;BME280;71262;-25.924;28.194;2023-08-01T08:43:17;86179.02;;;22.35;25.29
55486;BME280;71262;-25.924;28.194;2023-08-01T08:45:42;86183.69;;;22.43;24.85
55486;BME280;71262;-25.924;28.194;2023-08-01T08:48:09;86183.52;;;22.23;24.90
55486;BME280;71262;-25.924;28.194;2023-08-01T08:50:32;86185.74;;;22.29;24.75
55486;BME280;71262;-25.924;28.194;2023-08-01T08:52:56;86182.62;;;22.28;24.70
55486;BME280;71262;-25.924;28.194;2023-08-01T08:55:21;86181.02;;;22.15;24.76
55486;BME280;71262;-25.924;28.194;2023-08-01T08:57:47;86180.16;;;22.18;24.56
55486;BME280;71262;-25.924;28.194;2023-08-01T09:00:12;86170.48;;;22.33;24.47
55486;BME280;71262;-25.924;28.194;2023-08-01T09:02:38;86169.69;;;22.14;24.55
55486;BME280;71262;-25.924;28.194;2023-08-01T09:05:02;86172.63;;;22.13;24.57
55486;BME280;71262;-25.924;28.194;2023-08-01T09:07:30;86164.99;;;22.07;24.60
55486;BME280;71262;-25.924;28.194;2023-08-01T09:09:52;86163.67;;;22.12;24.52
55486;BME280;71262;-25.924;28.194;2023-08-01T09:12:17;86161.78;;;21.90;24.61
55486;BME280;71262;-25.924;28.194;2023-08-01T09:14:42;86156.55;;;22.02;24.57
55486;BME280;71262;-25.924;28.194;2023-08-01T09:17:08;86151.17;;;22.02;25.56
55486;BME280;71262;-25.924;28.194;2023-08-01T09:19:32;86154.16;;;21.74;26.15
55486;BME280;71262;-25.924;28.194;2023-08-01T09:21:57;86160.74;;;21.74;26.44
55486;BME280;71262;-25.924;28.194;2023-08-01T09:24:22;86155.93;;;21.61;26.69
55486;BME280;71262;-25.924;28.194;2023-08-01T09:26:48;86149.11;;;21.78;26.54
55486;BME280;71262;-25.924;28.194;2023-08-01T09:29:12;86145.66;;;21.50;26.24
55486;BME280;71262;-25.924;28.194;2023-08-01T09:31:40;86140.23;;;21.46;26.42
55486;BME280;71262;-25.924;28.194;2023-08-01T09:34:03;86148.89;;;21.79;25.69
55486;BME280;71262;-25.924;28.194;2023-08-01T09:36:27;86140.22;;;21.93;25.32
55486;BME280;71262;-25.924;28.194;2023-08-01T10:00:38;86116.07;;;22.00;22.36
55486;BME280;71262;-25.924;28.194;2023-08-01T10:03:03;86108.96;;;21.88;22.65
55486;BME280;71262;-25.924;28.194;2023-08-01T10:05:30;86106.43;;;21.71;22.97
55486;BME280;71262;-25.924;28.194;2023-08-01T10:07:54;86105.18;;;21.58;23.25
55486;BME280;71262;-25.924;28.194;2023-08-01T10:10:18;86092.27;;;21.38;23.41
55486;BME280;71262;-25.924;28.194;2023-08-01T10:12:45;86098.08;;;21.32;23.49
55486;BME280;71262;-25.924;28.194;2023-08-01T10:15:09;86095.54;;;21.27;23.57
55486;BME280;71262;-25.924;28.194;2023-08-01T10:17:35;86091.21;;;21.46;23.62
55486;BME280;71262;-25.924;28.194;2023-08-01T10:19:58;86085.67;;;21.17;23.68
55486;BME280;71262;-25.924;28.194;2023-08-01T10:22:24;86079.76;;;21.21;23.72
55486;BME280;71262;-25.924;28.194;2023-08-01T10:24:49;86077.32;;;21.37;23.76
55486;BME280;71262;-25.924;28.194;2023-08-01T10:27:15;86069.96;;;21.11;23.84
55486;BME280;71262;-25.924;28.194;2023-08-01T10:29:39;86068.44;;;21.36;23.80
55486;BME280;71262;-25.924;28.194;2023-08-01T10:32:07;86066.48;;;21.22;23.80
55486;BME280;71262;-25.924;28.194;2023-08-01T10:34:29;86063.45;;;21.47;24.21
55486;BME280;71262;-25.924;28.194;2023-08-01T10:36:56;86063.85;;;21.29;24.36
55486;BME280;71262;-25.924;28.194;2023-08-01T10:39:22;86057.04;;;21.17;24.50
55486;BME280;71262;-25.924;28.194;2023-08-01T10:41:44;86053.96;;;21.19;24.32
55486;BME280;71262;-25.924;28.194;2023-08-01T10:44:11;86046.63;;;21.17;24.39
55486;BME280;71262;-25.924;28.194;2023-08-01T10:48:59;86039.40;;;21.31;24.48
55486;BME280;71262;-25.924;28.194;2023-08-01T10:53:49;86022.98;;;21.29;24.41
55486;BME280;71262;-25.924;28.194;2023-08-01T10:56:19;86024.27;;;21.35;24.49
55486;BME280;71262;-25.924;28.194;2023-08-01T10:58:40;86021.87;;;21.32;24.69
55486;BME280;71262;-25.924;28.194;2023-08-01T11:01:05;86021.25;;;21.27;24.88
55486;BME280;71262;-25.924;28.194;2023-08-01T11:03:35;86017.92;;;21.17;25.19
55486;BME280;71262;-25.924;28.194;2023-08-01T11:05:58;86013.03;;;21.12;25.38
55486;BME280;71262;-25.924;28.194;2023-08-01T11:08:20;86009.38;;;21.25;25.65
55486;BME280;71262;-25.924;28.194;2023-08-01T11:10:50;86005.97;;;21.25;25.81
55486;BME280;71262;-25.924;28.194;2023-08-01T11:13:12;85998.10;;;21.42;25.92
55486;BME280;71262;-25.924;28.194;2023-08-01T11:15:38;86001.40;;;21.37;26.20
55486;BME280;71262;-25.924;28.194;2023-08-01T11:18:00;86004.83;;;21.35;26.38
55486;BME280;71262;-25.924;28.194;2023-08-01T11:20:26;86001.96;;;21.58;26.70
55486;BME280;71262;-25.924;28.194;2023-08-01T11:22:53;85991.74;;;21.50;26.91
55486;BME280;71262;-25.924;28.194;2023-08-01T11:25:16;85991.71;;;21.59;27.02
55486;BME280;71262;-25.924;28.194;2023-08-01T11:27:41;85986.84;;;21.39;27.07
55486;BME280;71262;-25.924;28.194;2023-08-01T11:30:07;85982.92;;;21.19;27.08
55486;BME280;71262;-25.924;28.194;2023-08-01T11:32:35;85983.29;;;21.09;27.07
55486;BME280;71262;-25.924;28.194;2023-08-01T11:34:56;85978.91;;;21.09;27.04
55486;BME280;71262;-25.924;28.194;2023-08-01T11:37:21;85979.67;;;21.20;27.13
55486;BME280;71262;-25.924;28.194;2023-08-01T11:39:47;85976.73;;;20.85;27.15
55486;BME280;71262;-25.924;28.194;2023-08-01T11:42:15;85980.11;;;20.82;27.14
55486;BME280;71262;-25.924;28.194;2023-08-01T11:44:36;85979.24;;;21.11;27.08
55486;BME280;71262;-25.924;28.194;2023-08-01T11:47:01;85979.50;;;21.05;27.08
55486;BME280;71262;-25.924;28.194;2023-08-01T11:49:26;85978.81;;;20.78;27.03
55486;BME280;71262;-25.924;28.194;2023-08-01T11:51:51;85972.85;;;20.79;26.98
55486;BME280;71262;-25.924;28.194;2023-08-01T11:54:17;85971.72;;;21.00;26.89
55486;BME280;71262;-25.924;28.194;2023-08-01T11:56:43;85972.64;;;21.01;26.77
55486;BME280;71262;-25.924;28.194;2023-08-01T11:59:10;85974.96;;;20.65;26.78
55486;BME280;71262;-25.924;28.194;2023-08-01T12:01:39;85975.05;;;20.92;26.69
55486;BME280;71262;-25.924;28.194;2023-08-01T12:03:57;85970.43;;;20.80;26.72
55486;BME280;71262;-25.924;28.194;2023-08-01T12:06:24;85967.29;;;20.74;26.69
55486;BME280;71262;-25.924;28.194;2023-08-01T12:08:50;85965.63;;;20.78;26.59
55486;BME280;71262;-25.924;28.194;2023-08-01T12:11:19;85961.30;;;20.80;26.41
55486;BME280;71262;-25.924;28.194;2023-08-01T12:13:38;85967.32;;;20.83;26.29
55486;BME280;71262;-25.924;28.194;2023-08-01T12:16:03;85959.86;;;20.54;26.24
55486;BME280;71262;-25.924;28.194;2023-08-01T12:18:29;85958.06;;;20.87;26.14
55486;BME280;71262;-25.924;28.194;2023-08-01T12:20:54;85959.69;;;20.83;26.06
55486;BME280;71262;-25.924;28.194;2023-08-01T12:23:19;85960.82;;;20.75;26.06
55486;BME280;71262;-25.924;28.194;2023-08-01T12:25:44;85961.04;;;20.65;26.06
55486;BME280;71262;-25.924;28.194;2023-08-01T12:28:08;85960.47;;;20.69;25.97
55486;BME280;71262;-25.924;28.194;2023-08-01T12:30:34;85960.06;;;20.62;25.96
55486;BME280;71262;-25.924;28.194;2023-08-01T12:32:59;85960.79;;;20.66;25.89
55486;BME280;71262;-25.924;28.194;2023-08-01T12:35:24;85958.32;;;20.63;25.81
55486;BME280;71262;-25.924;28.194;2023-08-01T12:37:49;85959.08;;;20.63;25.74
55486;BME280;71262;-25.924;28.194;2023-08-01T12:40:14;85958.29;;;20.60;25.72
55486;BME280;71262;-25.924;28.194;2023-08-01T12:42:39;85957.87;;;21.00;25.70
55486;BME280;71262;-25.924;28.194;2023-08-01T12:45:05;85957.65;;;20.52;25.66
55486;BME280;71262;-25.924;28.194;2023-08-01T12:47:30;85958.17;;;20.26;25.58
55486;BME280;71262;-25.924;28.194;2023-08-01T12:49:55;85952.28;;;20.56;25.52
55486;BME280;71262;-25.924;28.194;2023-08-01T12:52:23;85949.91;;;20.56;25.44
55486;BME280;71262;-25.924;28.194;2023-08-01T12:54:46;85955.16;;;20.52;25.40